sensor_id;sensor_type;location;lat;lon;timestamp;pressure;altitude;pressure_sealevel;temperature;humidity
49723;BME280;43484;43.608;1.458;2023-05-18T00:00:54;100189.41;;;11.91;100.00
49723;BME280;43484;43.608;1.458;2023-05-18T00:03:20;100184.03;;;12.11;100.00
49723;BME280;43484;43.608;1.458;2023-05-18T00:05:48;100178.72;;;12.04;100.00
49723;BME280;43484;43.608;1.458;2023-05-18T00:08:15;100183.69;;;11.99;100.00
49723;BME280;43484;43.608;1.458;2023-05-18T00:10:42;100184.44;;;11.95;100.00
49723;BME280;43484;43.608;1.458;2023-05-18T00:13:08;100184.16;;;12.16;100.00
49723;BME280;43484;43.608;1.458;2023-05-18T00:15:35;100184.53;;;11.98;100.00
49723;BME280;43484;43.608;1.458;2023-05-18T00:18:02;100180.03;;;11.91;100.00
49723;BME280;43484;43.608;1.458;2023-05-18T00:20:29;100177.88;;;12.05;100.00
49723;BME280;43484;43.608;1.458;2023-05-18T00:22:56;100184.69;;;12.04;100.00
49723;BME280;43484;43.608;1.458;2023-05-18T00:25:22;100175.03;;;11.96;100.00
49723;BME280;43484;43.608;1.458;2023-05-18T00:27:49;100175.84;;;11.95;100.00
49723;BME280;43484;43.608;1.458;2023-05-18T00:30:17;100169.28;;;12.04;100.00
49723;BME280;43484;43.608;1.458;2023-05-18T00:32:44;100169.31;;;12.06;100.00
49723;BME280;43484;43.608;1.458;2023-05-18T00:35:11;100163.53;;;12.13;100.00
49723;BME280;43484;43.608;1.458;2023-05-18T00:37:38;100168.31;;;12.01;100.00
49723;BME280;43484;43.608;1.458;2023-05-18T00:40:05;100168.00;;;11.89;100.00
49723;BME280;43484;43.608;1.458;2023-05-18T00:42:32;100159.41;;;11.88;100.00
49723;BME280;43484;43.608;1.458;2023-05-18T00:44:59;100158.66;;;11.92;100.00
49723;BME280;43484;43.608;1.458;2023-05-18T00:47:26;100161.28;;;11.94;100.00
49723;BME280;43484;43.608;1.458;2023-05-18T00:49:52;100160.81;;;12.07;100.00
49723;BME280;43484;43.608;1.458;2023-05-18T00:52:19;100158.31;;;12.10;100.00
49723;BME280;43484;43.608;1.458;2023-05-18T00:54:48;100162.75;;;11.86;100.00
49723;BME280;43484;43.608;1.458;2023-05-18T00:57:14;100157.31;;;12.05;100.00
49723;BME280;43484;43.608;1.458;2023-05-18T00:59:41;100160.28;;;11.89;100.00
49723;BME280;43484;43.608;1.458;2023-05-18T01:02:08;100160.84;;;11.79;100.00
49723;BME280;43484;43.608;1.458;2023-05-18T01:04:37;100160.53;;;11.98;100.00
49723;BME280;43484;43.608;1.458;2023-05-18T01:07:06;100150.63;;;11.80;100.00
49723;BME280;43484;43.608;1.458;2023-05-18T01:09:33;100154.03;;;11.81;100.00
49723;BME280;43484;43.608;1.458;2023-05-18T01:14:56;100157.72;;;11.89;100.00
49723;BME280;43484;43.608;1.458;2023-05-18T01:17:36;100153.34;;;11.86;100.00
49723;BME280;43484;43.608;1.458;2023-05-18T01:28:24;100139.63;;;11.86;100.00
49723;BME280;43484;43.608;1.458;2023-05-18T01:30:52;100138.19;;;11.94;100.00
49723;BME280;43484;43.608;1.458;2023-05-18T01:33:19;100132.34;;;11.99;100.00
49723;BME280;43484;43.608;1.458;2023-05-18T01:35:46;100135.97;;;12.07;100.00
49723;BME280;43484;43.608;1.458;2023-05-18T01:38:17;100133.19;;;11.98;100.00
49723;BME280;43484;43.608;1.458;2023-05-18T01:43:47;100133.50;;;11.81;100.00
49723;BME280;43484;43.608;1.458;2023-05-18T01:48:48;100128.47;;;11.84;100.00
49723;BME280;43484;43.608;1.458;2023-05-18T01:51:20;100136.94;;;11.81;100.00
49723;BME280;43484;43.608;1.458;2023-05-18T01:53:53;100135.34;;;11.85;100.00
49723;BME280;43484;43.608;1.458;2023-05-18T01:56:22;100137.91;;;11.85;100.00
49723;BME280;43484;43.608;1.458;2023-05-18T01:58:49;100140.19;;;11.76;100.00
49723;BME280;43484;43.608;1.458;2023-05-18T02:01:18;100137.00;;;11.83;100.00
49723;BME280;43484;43.608;1.458;2023-05-18T02:03:49;100135.81;;;11.72;100.00
49723;BME280;43484;43.608;1.458;2023-05-18T02:06:16;100130.94;;;11.81;100.00
49723;BME280;43484;43.608;1.458;2023-05-18T02:08:43;100132.50;;;11.76;100.00
49723;BME280;43484;43.608;1.458;2023-05-18T02:11:10;100128.94;;;11.71;100.00
49723;BME280;43484;43.608;1.458;2023-05-18T02:13:36;100132.53;;;11.77;100.00
49723;BME280;43484;43.608;1.458;2023-05-18T02:16:03;100130.84;;;11.78;100.00
49723;BME280;43484;43.608;1.458;2023-05-18T02:18:30;100123.50;;;11.90;100.00
49723;BME280;43484;43.608;1.458;2023-05-18T02:20:59;100131.59;;;12.03;100.00
49723;BME280;43484;43.608;1.458;2023-05-18T02:23:26;100126.66;;;11.80;100.00
49723;BME280;43484;43.608;1.458;2023-05-18T02:25:53;100129.97;;;11.77;100.00
49723;BME280;43484;43.608;1.458;2023-05-18T02:28:22;100124.13;;;11.81;100.00
49723;BME280;43484;43.608;1.458;2023-05-18T02:30:49;100125.34;;;11.94;100.00
49723;BME280;43484;43.608;1.458;2023-05-18T02:33:16;100122.19;;;11.74;100.00
49723;BME280;43484;43.608;1.458;2023-05-18T02:35:45;100121.44;;;11.77;100.00
49723;BME280;43484;43.608;1.458;2023-05-18T02:38:12;100118.47;;;11.93;100.00
49723;BME280;43484;43.608;1.458;2023-05-18T02:40:38;100117.50;;;11.89;100.00
49723;BME280;43484;43.608;1.458;2023-05-18T02:43:05;100120.28;;;11.67;100.00
49723;BME280;43484;43.608;1.458;2023-05-18T02:45:31;100123.78;;;11.71;100.00
49723;BME280;43484;43.608;1.458;2023-05-18T02:47:58;100111.41;;;11.86;100.00
49723;BME280;43484;43.608;1.458;2023-05-18T02:50:25;100120.50;;;11.75;100.00
49723;BME280;43484;43.608;1.458;2023-05-18T02:52:52;100119.94;;;11.57;100.00
49723;BME280;43484;43.608;1.458;2023-05-18T02:55:18;100128.47;;;11.57;100.00
49723;BME280;43484;43.608;1.458;2023-05-18T02:57:45;100121.63;;;11.56;100.00
49723;BME280;43484;43.608;1.458;2023-05-18T03:00:13;100118.94;;;11.52;100.00
49723;BME280;43484;43.608;1.458;2023-05-18T03:02:42;100117.34;;;11.55;100.00
49723;BME280;43484;43.608;1.458;2023-05-18T03:05:09;100118.09;;;11.53;100.00
49723;BME280;43484;43.608;1.458;2023-05-18T03:07:36;100114.34;;;11.42;100.00
49723;BME280;43484;43.608;1.458;2023-05-18T03:10:03;100118.00;;;11.50;100.00
49723;BME280;43484;43.608;1.458;2023-05-18T03:12:30;100111.41;;;11.58;100.00
49723;BME280;43484;43.608;1.458;2023-05-18T03:14:56;100119.03;;;11.55;100.00
49723;BME280;43484;43.608;1.458;2023-05-18T03:17:23;100113.22;;;11.60;100.00
49723;BME280;43484;43.608;1.458;2023-05-18T03:19:49;100107.19;;;11.60;100.00
49723;BME280;43484;43.608;1.458;2023-05-18T03:22:17;100113.03;;;11.56;100.00
49723;BME280;43484;43.608;1.458;2023-05-18T03:24:43;100107.84;;;11.53;100.00
49723;BME280;43484;43.608;1.458;2023-05-18T03:27:10;100102.75;;;11.54;100.00
49723;BME280;43484;43.608;1.458;2023-05-18T03:29:38;100104.31;;;11.49;100.00
49723;BME280;43484;43.608;1.458;2023-05-18T03:32:05;100107.91;;;11.56;100.00
49723;BME280;43484;43.608;1.458;2023-05-18T03:34:31;100100.66;;;11.41;100.00
49723;BME280;43484;43.608;1.458;2023-05-18T03:36:58;100104.19;;;11.45;100.00
49723;BME280;43484;43.608;1.458;2023-05-18T03:39:25;100103.09;;;11.65;100.00
49723;BME280;43484;43.608;1.458;2023-05-18T03:41:51;100101.66;;;11.46;100.00
49723;BME280;43484;43.608;1.458;2023-05-18T03:44:19;100107.34;;;11.36;100.00
49723;BME280;43484;43.608;1.458;2023-05-18T03:46:46;100102.91;;;11.32;100.00
49723;BME280;43484;43.608;1.458;2023-05-18T03:49:12;100115.59;;;11.27;100.00
49723;BME280;43484;43.608;1.458;2023-05-18T03:51:39;100100.50;;;11.36;100.00
49723;BME280;43484;43.608;1.458;2023-05-18T03:54:06;100104.81;;;11.37;100.00
49723;BME280;43484;43.608;1.458;2023-05-18T03:56:32;100106.22;;;11.28;100.00
49723;BME280;43484;43.608;1.458;2023-05-18T03:58:59;100103.00;;;11.33;100.00
49723;BME280;43484;43.608;1.458;2023-05-18T04:01:25;100105.47;;;11.32;100.00
49723;BME280;43484;43.608;1.458;2023-05-18T04:03:55;100105.47;;;11.32;100.00
49723;BME280;43484;43.608;1.458;2023-05-18T04:06:23;100107.13;;;11.28;100.00
49723;BME280;43484;43.608;1.458;2023-05-18T04:08:52;100108.00;;;11.30;100.00
49723;BME280;43484;43.608;1.458;2023-05-18T04:11:18;100112.38;;;11.06;100.00
49723;BME280;43484;43.608;1.458;2023-05-18T04:13:45;100114.22;;;11.10;100.00
49723;BME280;43484;43.608;1.458;2023-05-18T04:16:13;100121.09;;;11.11;100.00
49723;BME280;43484;43.608;1.458;2023-05-18T04:18:40;100113.41;;;11.11;100.00
49723;BME280;43484;43.608;1.458;2023-05-18T04:21:06;100122.81;;;11.12;100.00
49723;BME280;43484;43.608;1.458;2023-05-18T04:23:33;100119.81;;;10.99;100.00
49723;BME280;43484;43.608;1.458;2023-05-18T04:26:05;100121.09;;;11.11;100.00
49723;BME280;43484;43.608;1.458;2023-05-18T04:28:31;100121.09;;;11.11;100.00
49723;BME280;43484;43.608;1.458;2023-05-18T04:30:58;100119.59;;;11.18;100.00
49723;BME280;43484;43.608;1.458;2023-05-18T04:33:25;100121.00;;;11.08;100.00
49723;BME280;43484;43.608;1.458;2023-05-18T04:35:52;100117.25;;;10.99;100.00
49723;BME280;43484;43.608;1.458;2023-05-18T04:38:20;100114.75;;;11.00;100.00
49723;BME280;43484;43.608;1.458;2023-05-18T04:40:50;100123.09;;;11.20;100.00
49723;BME280;43484;43.608;1.458;2023-05-18T04:43:18;100123.66;;;11.11;100.00
49723;BME280;43484;43.608;1.458;2023-05-18T04:45:47;100126.81;;;11.03;100.00
49723;BME280;43484;43.608;1.458;2023-05-18T04:48:17;100126.00;;;11.05;100.00
49723;BME280;43484;43.608;1.458;2023-05-18T04:50:44;100124.50;;;10.85;100.00
49723;BME280;43484;43.608;1.458;2023-05-18T04:53:11;100135.19;;;10.99;100.00
49723;BME280;43484;43.608;1.458;2023-05-18T04:55:39;100131.94;;;11.03;100.00
49723;BME280;43484;43.608;1.458;2023-05-18T04:58:08;100135.94;;;10.95;100.00
49723;BME280;43484;43.608;1.458;2023-05-18T05:00:35;100142.66;;;10.91;100.00
49723;BME280;43484;43.608;1.458;2023-05-18T05:03:03;100143.06;;;11.03;100.00
49723;BME280;43484;43.608;1.458;2023-05-18T05:05:29;100145.91;;;11.12;100.00
49723;BME280;43484;43.608;1.458;2023-05-18T05:07:57;100149.63;;;11.22;100.00
49723;BME280;43484;43.608;1.458;2023-05-18T05:10:24;100153.41;;;11.06;100.00
49723;BME280;43484;43.608;1.458;2023-05-18T05:12:51;100146.81;;;11.14;100.00
49723;BME280;43484;43.608;1.458;2023-05-18T05:15:18;100152.13;;;10.94;100.00
49723;BME280;43484;43.608;1.458;2023-05-18T05:17:46;100153.06;;;10.96;100.00
49723;BME280;43484;43.608;1.458;2023-05-18T05:20:13;100159.16;;;10.99;100.00
49723;BME280;43484;43.608;1.458;2023-05-18T05:22:40;100167.16;;;11.08;100.00
49723;BME280;43484;43.608;1.458;2023-05-18T05:25:07;100163.94;;;11.15;100.00
49723;BME280;43484;43.608;1.458;2023-05-18T05:27:33;100164.59;;;11.08;100.00
49723;BME280;43484;43.608;1.458;2023-05-18T05:30:00;100172.00;;;11.01;100.00
49723;BME280;43484;43.608;1.458;2023-05-18T05:32:27;100166.06;;;11.02;100.00
49723;BME280;43484;43.608;1.458;2023-05-18T05:34:54;100164.28;;;10.99;100.00
49723;BME280;43484;43.608;1.458;2023-05-18T05:37:21;100153.53;;;11.11;100.00
49723;BME280;43484;43.608;1.458;2023-05-18T05:39:48;100166.53;;;11.17;100.00
49723;BME280;43484;43.608;1.458;2023-05-18T05:42:15;100173.59;;;10.72;100.00
49723;BME280;43484;43.608;1.458;2023-05-18T05:44:41;100175.50;;;10.78;100.00
49723;BME280;43484;43.608;1.458;2023-05-18T05:47:08;100175.41;;;11.00;100.00
49723;BME280;43484;43.608;1.458;2023-05-18T05:49:35;100173.03;;;10.81;100.00
49723;BME280;43484;43.608;1.458;2023-05-18T05:52:02;100171.75;;;11.18;100.00
49723;BME280;43484;43.608;1.458;2023-05-18T05:54:29;100172.34;;;11.36;100.00
49723;BME280;43484;43.608;1.458;2023-05-18T05:56:56;100173.22;;;11.12;100.00
49723;BME280;43484;43.608;1.458;2023-05-18T05:59:22;100177.81;;;11.22;100.00
49723;BME280;43484;43.608;1.458;2023-05-18T06:01:49;100170.28;;;11.00;100.00
49723;BME280;43484;43.608;1.458;2023-05-18T06:04:16;100178.88;;;11.02;100.00
49723;BME280;43484;43.608;1.458;2023-05-18T06:06:43;100177.56;;;11.13;100.00
49723;BME280;43484;43.608;1.458;2023-05-18T06:09:09;100178.34;;;11.12;100.00
49723;BME280;43484;43.608;1.458;2023-05-18T06:11:36;100184.47;;;10.90;100.00
49723;BME280;43484;43.608;1.458;2023-05-18T06:14:03;100188.28;;;11.01;100.00
49723;BME280;43484;43.608;1.458;2023-05-18T06:16:30;100196.16;;;11.07;100.00
49723;BME280;43484;43.608;1.458;2023-05-18T06:18:57;100187.66;;;11.08;100.00
49723;BME280;43484;43.608;1.458;2023-05-18T06:21:24;100194.44;;;11.06;100.00
49723;BME280;43484;43.608;1.458;2023-05-18T06:23:51;100192.47;;;10.99;100.00
49723;BME280;43484;43.608;1.458;2023-05-18T06:26:17;100189.41;;;11.09;100.00
49723;BME280;43484;43.608;1.458;2023-05-18T06:28:44;100183.06;;;11.25;100.00
49723;BME280;43484;43.608;1.458;2023-05-18T06:31:10;100188.34;;;11.29;100.00
49723;BME280;43484;43.608;1.458;2023-05-18T06:33:38;100189.28;;;11.31;100.00
49723;BME280;43484;43.608;1.458;2023-05-18T06:36:05;100189.34;;;11.08;100.00
49723;BME280;43484;43.608;1.458;2023-05-18T06:38:32;100185.47;;;11.20;100.00
49723;BME280;43484;43.608;1.458;2023-05-18T06:40:58;100203.84;;;11.07;100.00
49723;BME280;43484;43.608;1.458;2023-05-18T06:43:25;100192.41;;;11.23;100.00
49723;BME280;43484;43.608;1.458;2023-05-18T06:45:54;100195.84;;;11.23;100.00
49723;BME280;43484;43.608;1.458;2023-05-18T06:48:26;100199.03;;;11.43;100.00
49723;BME280;43484;43.608;1.458;2023-05-18T06:50:54;100196.59;;;11.21;100.00
49723;BME280;43484;43.608;1.458;2023-05-18T06:53:20;100198.50;;;11.26;100.00
49723;BME280;43484;43.608;1.458;2023-05-18T06:55:48;100196.88;;;11.28;100.00
49723;BME280;43484;43.608;1.458;2023-05-18T06:58:15;100197.06;;;11.34;100.00
49723;BME280;43484;43.608;1.458;2023-05-18T07:00:41;100202.63;;;11.48;100.00
49723;BME280;43484;43.608;1.458;2023-05-18T07:03:08;100194.03;;;11.48;100.00
49723;BME280;43484;43.608;1.458;2023-05-18T07:05:35;100205.22;;;11.50;100.00
49723;BME280;43484;43.608;1.458;2023-05-18T07:08:05;100201.88;;;11.52;100.00
49723;BME280;43484;43.608;1.458;2023-05-18T07:10:32;100203.56;;;11.50;100.00
49723;BME280;43484;43.608;1.458;2023-05-18T07:13:00;100207.34;;;11.63;100.00
49723;BME280;43484;43.608;1.458;2023-05-18T07:15:27;100213.38;;;11.63;100.00
49723;BME280;43484;43.608;1.458;2023-05-18T07:17:54;100212.03;;;11.74;100.00
49723;BME280;43484;43.608;1.458;2023-05-18T07:20:21;100215.06;;;11.63;100.00
49723;BME280;43484;43.608;1.458;2023-05-18T07:22:51;100223.16;;;11.75;100.00
49723;BME280;43484;43.608;1.458;2023-05-18T07:25:21;100222.16;;;11.70;100.00
49723;BME280;43484;43.608;1.458;2023-05-18T07:27:48;100218.44;;;11.62;100.00
49723;BME280;43484;43.608;1.458;2023-05-18T07:30:14;100210.50;;;11.54;100.00
49723;BME280;43484;43.608;1.458;2023-05-18T07:32:41;100209.81;;;11.60;100.00
49723;BME280;43484;43.608;1.458;2023-05-18T07:35:10;100222.75;;;11.63;100.00
49723;BME280;43484;43.608;1.458;2023-05-18T07:37:37;100224.91;;;11.76;100.00
49723;BME280;43484;43.608;1.458;2023-05-18T07:40:05;100219.75;;;11.76;100.00
49723;BME280;43484;43.608;1.458;2023-05-18T07:42:32;100227.22;;;11.95;100.00
49723;BME280;43484;43.608;1.458;2023-05-18T07:44:59;100224.09;;;11.77;100.00
49723;BME280;43484;43.608;1.458;2023-05-18T07:47:26;100228.72;;;11.88;100.00
49723;BME280;43484;43.608;1.458;2023-05-18T07:49:53;100228.88;;;11.66;100.00
49723;BME280;43484;43.608;1.458;2023-05-18T07:52:19;100232.16;;;11.89;100.00
49723;BME280;43484;43.608;1.458;2023-05-18T07:54:46;100229.13;;;12.02;100.00
49723;BME280;43484;43.608;1.458;2023-05-18T07:57:12;100231.63;;;11.99;100.00
49723;BME280;43484;43.608;1.458;2023-05-18T07:59:40;100229.84;;;11.98;100.00
49723;BME280;43484;43.608;1.458;2023-05-18T08:02:06;100236.00;;;12.03;100.00
49723;BME280;43484;43.608;1.458;2023-05-18T08:04:33;100233.53;;;12.06;100.00
49723;BME280;43484;43.608;1.458;2023-05-18T08:07:00;100232.53;;;12.29;100.00
49723;BME280;43484;43.608;1.458;2023-05-18T08:09:27;100238.22;;;12.19;100.00
49723;BME280;43484;43.608;1.458;2023-05-18T08:11:54;100234.22;;;12.00;100.00
49723;BME280;43484;43.608;1.458;2023-05-18T08:14:20;100230.56;;;12.20;100.00
49723;BME280;43484;43.608;1.458;2023-05-18T08:16:47;100216.19;;;12.27;100.00
49723;BME280;43484;43.608;1.458;2023-05-18T08:19:14;100230.13;;;12.35;100.00
49723;BME280;43484;43.608;1.458;2023-05-18T08:21:41;100224.06;;;12.33;100.00
49723;BME280;43484;43.608;1.458;2023-05-18T08:24:08;100228.84;;;12.21;100.00
49723;BME280;43484;43.608;1.458;2023-05-18T08:26:35;100223.00;;;12.56;100.00
49723;BME280;43484;43.608;1.458;2023-05-18T08:29:02;100231.47;;;12.52;100.00
49723;BME280;43484;43.608;1.458;2023-05-18T08:31:36;100225.16;;;12.72;100.00
49723;BME280;43484;43.608;1.458;2023-05-18T08:34:04;100221.34;;;12.89;100.00
49723;BME280;43484;43.608;1.458;2023-05-18T08:36:33;100218.84;;;12.61;100.00
49723;BME280;43484;43.608;1.458;2023-05-18T08:39:00;100214.44;;;12.55;100.00
49723;BME280;43484;43.608;1.458;2023-05-18T08:41:29;100213.56;;;12.55;100.00
49723;BME280;43484;43.608;1.458;2023-05-18T08:44:03;100210.56;;;12.71;100.00
49723;BME280;43484;43.608;1.458;2023-05-18T08:46:36;100209.84;;;12.77;100.00
49723;BME280;43484;43.608;1.458;2023-05-18T08:49:08;100214.97;;;12.75;100.00
49723;BME280;43484;43.608;1.458;2023-05-18T08:51:36;100206.69;;;12.87;100.00
49723;BME280;43484;43.608;1.458;2023-05-18T08:54:05;100212.16;;;12.99;100.00
49723;BME280;43484;43.608;1.458;2023-05-18T08:56:33;100205.88;;;12.88;100.00
49723;BME280;43484;43.608;1.458;2023-05-18T08:59:03;100212.00;;;12.93;100.00
49723;BME280;43484;43.608;1.458;2023-05-18T09:01:34;100205.22;;;13.27;100.00
49723;BME280;43484;43.608;1.458;2023-05-18T09:04:01;100205.03;;;13.21;100.00
49723;BME280;43484;43.608;1.458;2023-05-18T09:06:29;100218.50;;;13.11;100.00
49723;BME280;43484;43.608;1.458;2023-05-18T09:08:58;100208.38;;;13.17;100.00
49723;BME280;43484;43.608;1.458;2023-05-18T09:11:31;100207.84;;;13.30;100.00
49723;BME280;43484;43.608;1.458;2023-05-18T09:13:59;100212.31;;;13.37;100.00
49723;BME280;43484;43.608;1.458;2023-05-18T09:16:26;100211.88;;;13.55;100.00
49723;BME280;43484;43.608;1.458;2023-05-18T09:18:53;100209.75;;;13.37;100.00
49723;BME280;43484;43.608;1.458;2023-05-18T09:21:20;100209.75;;;13.37;100.00
49723;BME280;43484;43.608;1.458;2023-05-18T09:23:46;100207.09;;;13.71;100.00
49723;BME280;43484;43.608;1.458;2023-05-18T09:26:13;100204.19;;;13.95;100.00
49723;BME280;43484;43.608;1.458;2023-05-18T09:28:41;100201.13;;;14.11;100.00
49723;BME280;43484;43.608;1.458;2023-05-18T09:31:16;100198.75;;;14.22;100.00
49723;BME280;43484;43.608;1.458;2023-05-18T09:33:44;100212.72;;;14.30;100.00
49723;BME280;43484;43.608;1.458;2023-05-18T09:36:11;100207.91;;;14.08;100.00
49723;BME280;43484;43.608;1.458;2023-05-18T09:38:42;100201.84;;;14.06;100.00
49723;BME280;43484;43.608;1.458;2023-05-18T09:41:11;100204.22;;;13.97;100.00
49723;BME280;43484;43.608;1.458;2023-05-18T09:43:39;100201.28;;;14.19;100.00
49723;BME280;43484;43.608;1.458;2023-05-18T09:46:07;100204.38;;;14.43;100.00
49723;BME280;43484;43.608;1.458;2023-05-18T09:48:35;100205.88;;;14.75;100.00
49723;BME280;43484;43.608;1.458;2023-05-18T09:51:05;100203.44;;;14.38;100.00
49723;BME280;43484;43.608;1.458;2023-05-18T09:53:35;100206.75;;;14.77;100.00
49723;BME280;43484;43.608;1.458;2023-05-18T09:56:06;100202.94;;;14.57;100.00
49723;BME280;43484;43.608;1.458;2023-05-18T09:58:38;100211.28;;;14.45;100.00
49723;BME280;43484;43.608;1.458;2023-05-18T10:01:05;100204.94;;;14.70;100.00
49723;BME280;43484;43.608;1.458;2023-05-18T10:03:37;100211.16;;;14.82;100.00
49723;BME280;43484;43.608;1.458;2023-05-18T10:06:08;100211.78;;;14.69;100.00
49723;BME280;43484;43.608;1.458;2023-05-18T10:08:36;100213.53;;;14.72;100.00
49723;BME280;43484;43.608;1.458;2023-05-18T10:11:03;100213.34;;;14.61;100.00
49723;BME280;43484;43.608;1.458;2023-05-18T10:13:31;100215.63;;;14.91;100.00
49723;BME280;43484;43.608;1.458;2023-05-18T10:16:02;100210.78;;;15.09;100.00
49723;BME280;43484;43.608;1.458;2023-05-18T10:18:32;100212.38;;;15.50;100.00
49723;BME280;43484;43.608;1.458;2023-05-18T10:21:00;100214.44;;;15.20;100.00
49723;BME280;43484;43.608;1.458;2023-05-18T10:23:32;100212.63;;;15.67;100.00
49723;BME280;43484;43.608;1.458;2023-05-18T10:25:59;100211.34;;;15.41;100.00
49723;BME280;43484;43.608;1.458;2023-05-18T10:28:35;100208.63;;;15.87;100.00
49723;BME280;43484;43.608;1.458;2023-05-18T10:31:05;100202.22;;;16.23;100.00
49723;BME280;43484;43.608;1.458;2023-05-18T10:33:35;100206.34;;;16.09;100.00
49723;BME280;43484;43.608;1.458;2023-05-18T10:36:03;100208.13;;;16.15;100.00
49723;BME280;43484;43.608;1.458;2023-05-18T10:38:30;100195.38;;;16.27;100.00
49723;BME280;43484;43.608;1.458;2023-05-18T10:40:59;100206.84;;;15.84;100.00
49723;BME280;43484;43.608;1.458;2023-05-18T10:43:27;100201.66;;;15.83;100.00
49723;BME280;43484;43.608;1.458;2023-05-18T10:45:56;100204.13;;;15.74;100.00
49723;BME280;43484;43.608;1.458;2023-05-18T10:48:25;100211.56;;;16.12;100.00
49723;BME280;43484;43.608;1.458;2023-05-18T10:50:56;100210.81;;;15.61;100.00
49723;BME280;43484;43.608;1.458;2023-05-18T10:53:25;100210.13;;;15.73;100.00
49723;BME280;43484;43.608;1.458;2023-05-18T10:55:53;100208.78;;;15.97;100.00
49723;BME280;43484;43.608;1.458;2023-05-18T10:58:23;100211.47;;;15.48;100.00
49723;BME280;43484;43.608;1.458;2023-05-18T11:00:56;100213.72;;;15.82;100.00
49723;BME280;43484;43.608;1.458;2023-05-18T11:03:24;100216.72;;;15.54;100.00
49723;BME280;43484;43.608;1.458;2023-05-18T11:06:09;100212.34;;;15.47;100.00
49723;BME280;43484;43.608;1.458;2023-05-18T11:08:46;100204.03;;;15.69;100.00
49723;BME280;43484;43.608;1.458;2023-05-18T11:11:14;100206.66;;;15.71;100.00
49723;BME280;43484;43.608;1.458;2023-05-18T11:13:49;100200.72;;;15.76;100.00
49723;BME280;43484;43.608;1.458;2023-05-18T11:16:17;100200.44;;;16.19;100.00
49723;BME280;43484;43.608;1.458;2023-05-18T11:18:49;100195.91;;;16.02;100.00
49723;BME280;43484;43.608;1.458;2023-05-18T11:26:51;100201.88;;;16.64;100.00
49723;BME280;43484;43.608;1.458;2023-05-18T11:29:30;100200.31;;;16.09;100.00
49723;BME280;43484;43.608;1.458;2023-05-18T11:31:57;100204.97;;;16.37;100.00
49723;BME280;43484;43.608;1.458;2023-05-18T11:37:05;100193.16;;;16.56;100.00
49723;BME280;43484;43.608;1.458;2023-05-18T11:39:32;100194.69;;;16.42;100.00
49723;BME280;43484;43.608;1.458;2023-05-18T11:42:12;100192.22;;;16.49;100.00
49723;BME280;43484;43.608;1.458;2023-05-18T11:44:51;100194.84;;;16.54;100.00
49723;BME280;43484;43.608;1.458;2023-05-18T11:47:18;100182.66;;;16.45;100.00
49723;BME280;43484;43.608;1.458;2023-05-18T11:49:46;100193.72;;;16.32;100.00
49723;BME280;43484;43.608;1.458;2023-05-18T11:52:23;100192.34;;;16.61;100.00
49723;BME280;43484;43.608;1.458;2023-05-18T11:54:57;100196.50;;;16.46;100.00
49723;BME280;43484;43.608;1.458;2023-05-18T12:00:00;100191.72;;;16.11;100.00
49723;BME280;43484;43.608;1.458;2023-05-18T12:02:31;100193.56;;;16.21;100.00
49723;BME280;43484;43.608;1.458;2023-05-18T12:05:00;100192.13;;;16.45;100.00
49723;BME280;43484;43.608;1.458;2023-05-18T12:07:28;100193.75;;;16.35;100.00
49723;BME280;43484;43.608;1.458;2023-05-18T12:10:08;100191.03;;;16.26;100.00
49723;BME280;43484;43.608;1.458;2023-05-18T12:12:36;100188.59;;;16.38;100.00
49723;BME280;43484;43.608;1.458;2023-05-18T12:15:05;100191.28;;;16.44;100.00
49723;BME280;43484;43.608;1.458;2023-05-18T12:17:46;100190.75;;;16.74;100.00
49723;BME280;43484;43.608;1.458;2023-05-18T12:20:18;100191.97;;;17.09;100.00
49723;BME280;43484;43.608;1.458;2023-05-18T12:22:50;100199.81;;;16.37;100.00
49723;BME280;43484;43.608;1.458;2023-05-18T12:25:20;100194.53;;;16.31;100.00
49723;BME280;43484;43.608;1.458;2023-05-18T12:27:49;100192.47;;;16.03;100.00
49723;BME280;43484;43.608;1.458;2023-05-18T12:30:19;100194.34;;;16.14;100.00
49723;BME280;43484;43.608;1.458;2023-05-18T12:32:51;100192.47;;;16.04;100.00
49723;BME280;43484;43.608;1.458;2023-05-18T12:35:25;100193.13;;;15.88;100.00
49723;BME280;43484;43.608;1.458;2023-05-18T12:37:53;100191.84;;;16.19;100.00
49723;BME280;43484;43.608;1.458;2023-05-18T12:40:21;100197.78;;;16.13;100.00
49723;BME280;43484;43.608;1.458;2023-05-18T12:45:22;100190.38;;;16.42;100.00
49723;BME280;43484;43.608;1.458;2023-05-18T12:47:49;100190.78;;;16.06;100.00
49723;BME280;43484;43.608;1.458;2023-05-18T12:50:21;100192.84;;;16.31;100.00
49723;BME280;43484;43.608;1.458;2023-05-18T12:52:49;100181.88;;;16.49;100.00
49723;BME280;43484;43.608;1.458;2023-05-18T12:55:17;100191.78;;;16.16;100.00
49723;BME280;43484;43.608;1.458;2023-05-18T13:00:33;100188.84;;;15.89;100.00
49723;BME280;43484;43.608;1.458;2023-05-18T13:03:08;100196.91;;;16.14;100.00
49723;BME280;43484;43.608;1.458;2023-05-18T13:05:44;100177.34;;;16.34;100.00
49723;BME280;43484;43.608;1.458;2023-05-18T13:08:15;100172.28;;;16.41;100.00
49723;BME280;43484;43.608;1.458;2023-05-18T13:10:47;100178.09;;;16.26;100.00
49723;BME280;43484;43.608;1.458;2023-05-18T13:13:31;100184.19;;;16.29;100.00
49723;BME280;43484;43.608;1.458;2023-05-18T13:15:58;100181.50;;;16.20;100.00
49723;BME280;43484;43.608;1.458;2023-05-18T13:18:26;100195.56;;;15.79;100.00